sensor_id;sensor_type;location;lat;lon;timestamp;pressure;altitude;pressure_sealevel;temperature;humidity
36254;BME280;22291;52.250;21.228;2023-04-25T00:00:20;99008.43;;;11.64;65.09
36254;BME280;22291;52.250;21.228;2023-04-25T00:02:49;99003.94;;;11.62;64.75
36254;BME280;22291;52.250;21.228;2023-04-25T00:05:15;99007.22;;;11.62;65.11
36254;BME280;22291;52.250;21.228;2023-04-25T00:07:43;99007.33;;;11.59;65.21
36254;BME280;22291;52.250;21.228;2023-04-25T00:10:12;99005.54;;;11.57;65.32
36254;BME280;22291;52.250;21.228;2023-04-25T00:12:43;98998.11;;;11.54;65.08
36254;BME280;22291;52.250;21.228;2023-04-25T00:15:13;99007.72;;;11.51;65.10
36254;BME280;22291;52.250;21.228;2023-04-25T00:17:39;99009.77;;;11.48;65.54
36254;BME280;22291;52.250;21.228;2023-04-25T00:20:09;99004.83;;;11.44;65.97
36254;BME280;22291;52.250;21.228;2023-04-25T00:22:36;99006.06;;;11.40;66.07
36254;BME280;22291;52.250;21.228;2023-04-25T00:25:07;99008.81;;;11.34;66.59
36254;BME280;22291;52.250;21.228;2023-04-25T00:27:34;99011.87;;;11.33;66.86
36254;BME280;22291;52.250;21.228;2023-04-25T00:30:07;99015.02;;;11.29;67.20
36254;BME280;22291;52.250;21.228;2023-04-25T00:32:34;99019.33;;;11.24;66.98
36254;BME280;22291;52.250;21.228;2023-04-25T00:35:02;99020.48;;;11.16;67.06
36254;BME280;22291;52.250;21.228;2023-04-25T00:37:32;99016.91;;;11.12;67.51
36254;BME280;22291;52.250;21.228;2023-04-25T00:40:00;99021.88;;;11.04;68.13
36254;BME280;22291;52.250;21.228;2023-04-25T00:42:28;99021.00;;;11.00;68.14
36254;BME280;22291;52.250;21.228;2023-04-25T00:44:56;99019.89;;;10.95;68.46
36254;BME280;22291;52.250;21.228;2023-04-25T00:47:28;99018.41;;;10.91;68.33
36254;BME280;22291;52.250;21.228;2023-04-25T00:49:58;99019.12;;;10.88;68.74
36254;BME280;22291;52.250;21.228;2023-04-25T00:52:27;99021.48;;;10.83;69.18
36254;BME280;22291;52.250;21.228;2023-04-25T00:54:55;99020.13;;;10.77;69.10
36254;BME280;22291;52.250;21.228;2023-04-25T00:57:22;99021.52;;;10.71;69.41
36254;BME280;22291;52.250;21.228;2023-04-25T00:59:50;99013.40;;;10.65;69.92
36254;BME280;22291;52.250;21.228;2023-04-25T01:02:20;99014.08;;;10.62;70.01
36254;BME280;22291;52.250;21.228;2023-04-25T01:04:48;99013.40;;;10.59;69.89
36254;BME280;22291;52.250;21.228;2023-04-25T01:07:18;99008.45;;;10.55;70.01
36254;BME280;22291;52.250;21.228;2023-04-25T01:09:46;99016.70;;;10.52;70.48
36254;BME280;22291;52.250;21.228;2023-04-25T01:12:14;99011.16;;;10.49;70.34
36254;BME280;22291;52.250;21.228;2023-04-25T01:14:41;99013.20;;;10.45;70.37
36254;BME280;22291;52.250;21.228;2023-04-25T01:17:10;99012.73;;;10.43;70.80
36254;BME280;22291;52.250;21.228;2023-04-25T01:19:40;99011.28;;;10.40;71.17
36254;BME280;22291;52.250;21.228;2023-04-25T01:22:09;99012.31;;;10.35;70.60
36254;BME280;22291;52.250;21.228;2023-04-25T01:24:38;99018.70;;;10.31;71.45
36254;BME280;22291;52.250;21.228;2023-04-25T01:27:08;99016.09;;;10.28;71.59
36254;BME280;22291;52.250;21.228;2023-04-25T01:29:39;99019.25;;;10.24;71.47
36254;BME280;22291;52.250;21.228;2023-04-25T01:32:05;99018.57;;;10.21;71.70
36254;BME280;22291;52.250;21.228;2023-04-25T01:34:34;99014.41;;;10.17;71.93
36254;BME280;22291;52.250;21.228;2023-04-25T01:37:04;99010.58;;;10.12;72.03
36254;BME280;22291;52.250;21.228;2023-04-25T01:39:33;99006.98;;;10.08;72.21
36254;BME280;22291;52.250;21.228;2023-04-25T01:42:00;99010.02;;;10.06;72.45
36254;BME280;22291;52.250;21.228;2023-04-25T01:44:31;99004.50;;;10.03;72.52
36254;BME280;22291;52.250;21.228;2023-04-25T01:46:59;99006.08;;;9.98;72.86
36254;BME280;22291;52.250;21.228;2023-04-25T01:49:25;99006.41;;;9.96;73.05
36254;BME280;22291;52.250;21.228;2023-04-25T01:51:54;99005.72;;;9.93;73.19
36254;BME280;22291;52.250;21.228;2023-04-25T01:54:24;99003.11;;;9.90;73.42
36254;BME280;22291;52.250;21.228;2023-04-25T01:56:53;99005.03;;;9.90;73.54
36254;BME280;22291;52.250;21.228;2023-04-25T01:59:22;98997.84;;;9.88;73.53
36254;BME280;22291;52.250;21.228;2023-04-25T02:01:48;99005.83;;;9.84;73.62
36254;BME280;22291;52.250;21.228;2023-04-25T02:04:15;98999.41;;;9.83;73.89
36254;BME280;22291;52.250;21.228;2023-04-25T02:06:41;98995.45;;;9.80;73.49
36254;BME280;22291;52.250;21.228;2023-04-25T02:09:08;98993.41;;;9.77;73.77
36254;BME280;22291;52.250;21.228;2023-04-25T02:11:37;98989.48;;;9.75;73.80
36254;BME280;22291;52.250;21.228;2023-04-25T02:14:04;98994.44;;;9.72;74.37
36254;BME280;22291;52.250;21.228;2023-04-25T02:16:33;98991.83;;;9.70;74.38
36254;BME280;22291;52.250;21.228;2023-04-25T02:19:02;98986.22;;;9.69;74.29
36254;BME280;22291;52.250;21.228;2023-04-25T02:21:28;98989.25;;;9.67;74.38
36254;BME280;22291;52.250;21.228;2023-04-25T02:23:57;98983.94;;;9.65;74.37
36254;BME280;22291;52.250;21.228;2023-04-25T02:26:29;98987.21;;;9.64;75.46
36254;BME280;22291;52.250;21.228;2023-04-25T02:28:58;98985.41;;;9.62;74.92
36254;BME280;22291;52.250;21.228;2023-04-25T02:31:30;98984.27;;;9.63;74.56
36254;BME280;22291;52.250;21.228;2023-04-25T02:33:56;98992.16;;;9.62;76.37
36254;BME280;22291;52.250;21.228;2023-04-25T02:36:25;98989.67;;;9.63;76.52
36254;BME280;22291;52.250;21.228;2023-04-25T02:38:52;98985.30;;;9.65;76.30
36254;BME280;22291;52.250;21.228;2023-04-25T02:41:18;98979.36;;;9.65;76.01
36254;BME280;22291;52.250;21.228;2023-04-25T02:43:46;98978.45;;;9.67;76.26
36254;BME280;22291;52.250;21.228;2023-04-25T02:46:12;98993.52;;;9.68;75.81
36254;BME280;22291;52.250;21.228;2023-04-25T02:48:38;98994.86;;;9.68;75.93
36254;BME280;22291;52.250;21.228;2023-04-25T02:51:07;98994.41;;;9.66;76.10
36254;BME280;22291;52.250;21.228;2023-04-25T02:53:33;99003.08;;;9.66;75.85
36254;BME280;22291;52.250;21.228;2023-04-25T02:55:59;98990.60;;;9.67;76.93
36254;BME280;22291;52.250;21.228;2023-04-25T02:58:27;98997.02;;;9.69;77.43
36254;BME280;22291;52.250;21.228;2023-04-25T03:00:54;98997.14;;;9.72;77.70
36254;BME280;22291;52.250;21.228;2023-04-25T03:03:22;98994.77;;;9.77;77.94
36254;BME280;22291;52.250;21.228;2023-04-25T03:05:50;98994.91;;;9.81;78.26
36254;BME280;22291;52.250;21.228;2023-04-25T03:08:18;98991.42;;;9.86;79.09
36254;BME280;22291;52.250;21.228;2023-04-25T03:10:48;98995.02;;;9.90;78.95
36254;BME280;22291;52.250;21.228;2023-04-25T03:13:18;98996.95;;;9.96;79.16
36254;BME280;22291;52.250;21.228;2023-04-25T03:15:45;98995.14;;;10.00;78.94
36254;BME280;22291;52.250;21.228;2023-04-25T03:18:11;98987.59;;;10.06;79.32
36254;BME280;22291;52.250;21.228;2023-04-25T03:20:38;98984.67;;;10.11;79.60
36254;BME280;22291;52.250;21.228;2023-04-25T03:23:09;98989.07;;;10.16;79.24
36254;BME280;22291;52.250;21.228;2023-04-25T03:25:36;98990.98;;;10.21;78.95
36254;BME280;22291;52.250;21.228;2023-04-25T03:28:03;98994.80;;;10.26;79.45
36254;BME280;22291;52.250;21.228;2023-04-25T03:30:32;98992.71;;;10.32;79.59
36254;BME280;22291;52.250;21.228;2023-04-25T03:33:02;98994.95;;;10.36;79.54
36254;BME280;22291;52.250;21.228;2023-04-25T03:35:28;98993.70;;;10.40;80.13
36254;BME280;22291;52.250;21.228;2023-04-25T03:37:54;98999.90;;;10.46;80.37
36254;BME280;22291;52.250;21.228;2023-04-25T03:40:21;98997.64;;;10.49;80.28
36254;BME280;22291;52.250;21.228;2023-04-25T03:42:47;98996.63;;;10.53;80.42
36254;BME280;22291;52.250;21.228;2023-04-25T03:45:13;98993.48;;;10.57;80.22
36254;BME280;22291;52.250;21.228;2023-04-25T03:47:42;99006.20;;;10.63;80.33
36254;BME280;22291;52.250;21.228;2023-04-25T03:50:15;98998.42;;;10.68;80.37
36254;BME280;22291;52.250;21.228;2023-04-25T03:52:43;99008.09;;;10.75;80.66
36254;BME280;22291;52.250;21.228;2023-04-25T03:55:11;99014.05;;;10.80;81.10
36254;BME280;22291;52.250;21.228;2023-04-25T03:57:37;99009.18;;;10.86;81.08
36254;BME280;22291;52.250;21.228;2023-04-25T04:00:11;99008.40;;;10.92;81.21
36254;BME280;22291;52.250;21.228;2023-04-25T04:02:38;99011.98;;;10.96;80.85
36254;BME280;22291;52.250;21.228;2023-04-25T04:05:09;99018.50;;;11.01;81.09
36254;BME280;22291;52.250;21.228;2023-04-25T04:07:36;99018.61;;;11.05;81.07
36254;BME280;22291;52.250;21.228;2023-04-25T04:10:07;99025.02;;;11.12;81.17
36254;BME280;22291;52.250;21.228;2023-04-25T04:12:37;99022.28;;;11.18;81.30
36254;BME280;22291;52.250;21.228;2023-04-25T04:15:08;99022.03;;;11.24;81.33
36254;BME280;22291;52.250;21.228;2023-04-25T04:17:39;99029.70;;;11.28;81.34
36254;BME280;22291;52.250;21.228;2023-04-25T04:20:10;99024.39;;;11.31;81.16
36254;BME280;22291;52.250;21.228;2023-04-25T04:22:36;99027.97;;;11.35;81.14
36254;BME280;22291;52.250;21.228;2023-04-25T04:25:06;99021.44;;;11.36;80.92
36254;BME280;22291;52.250;21.228;2023-04-25T04:27:33;99026.37;;;11.40;80.70
36254;BME280;22291;52.250;21.228;2023-04-25T04:30:00;99031.91;;;11.44;80.95
36254;BME280;22291;52.250;21.228;2023-04-25T04:32:28;99038.77;;;11.48;80.82
36254;BME280;22291;52.250;21.228;2023-04-25T04:34:57;99042.25;;;11.48;80.66
36254;BME280;22291;52.250;21.228;2023-04-25T04:37:25;99038.63;;;11.50;80.44
36254;BME280;22291;52.250;21.228;2023-04-25T04:39:54;99039.88;;;11.53;80.40
36254;BME280;22291;52.250;21.228;2023-04-25T04:42:23;99037.46;;;11.57;80.66
36254;BME280;22291;52.250;21.228;2023-04-25T04:44:54;99041.62;;;11.61;80.62
36254;BME280;22291;52.250;21.228;2023-04-25T04:47:20;99045.68;;;11.61;80.61
36254;BME280;22291;52.250;21.228;2023-04-25T04:49:48;99044.80;;;11.63;80.38
36254;BME280;22291;52.250;21.228;2023-04-25T04:52:15;99048.95;;;11.67;80.36
36254;BME280;22291;52.250;21.228;2023-04-25T04:54:41;99044.97;;;11.70;80.47
36254;BME280;22291;52.250;21.228;2023-04-25T04:57:07;99048.35;;;11.73;80.23
36254;BME280;22291;52.250;21.228;2023-04-25T04:59:34;99045.64;;;11.73;80.04
36254;BME280;22291;52.250;21.228;2023-04-25T05:02:02;99048.55;;;11.74;80.02
36254;BME280;22291;52.250;21.228;2023-04-25T05:04:28;99050.92;;;11.76;80.01
36254;BME280;22291;52.250;21.228;2023-04-25T05:06:54;99050.58;;;11.77;80.09
36254;BME280;22291;52.250;21.228;2023-04-25T05:09:21;99047.86;;;11.77;79.84
36254;BME280;22291;52.250;21.228;2023-04-25T05:11:49;99055.39;;;11.84;80.07
36254;BME280;22291;52.250;21.228;2023-04-25T05:14:15;99042.52;;;11.87;80.04
36254;BME280;22291;52.250;21.228;2023-04-25T05:16:43;99048.14;;;11.94;79.85
36254;BME280;22291;52.250;21.228;2023-04-25T05:19:09;99046.67;;;11.97;79.68
36254;BME280;22291;52.250;21.228;2023-04-25T05:21:35;99035.00;;;12.03;79.72
36254;BME280;22291;52.250;21.228;2023-04-25T05:24:03;99040.81;;;12.11;79.51
36254;BME280;22291;52.250;21.228;2023-04-25T05:26:29;99037.70;;;12.19;79.45
36254;BME280;22291;52.250;21.228;2023-04-25T05:28:57;99042.50;;;12.25;79.17
36254;BME280;22291;52.250;21.228;2023-04-25T05:31:24;99034.11;;;12.30;79.17
36254;BME280;22291;52.250;21.228;2023-04-25T05:33:50;99037.44;;;12.40;79.03
36254;BME280;22291;52.250;21.228;2023-04-25T05:36:19;99042.95;;;12.43;78.62
36254;BME280;22291;52.250;21.228;2023-04-25T05:38:46;99048.87;;;12.49;78.40
36254;BME280;22291;52.250;21.228;2023-04-25T05:41:12;99054.53;;;12.50;77.92
36254;BME280;22291;52.250;21.228;2023-04-25T05:43:39;99054.30;;;12.49;77.69
36254;BME280;22291;52.250;21.228;2023-04-25T05:46:07;99054.80;;;12.45;77.30
36254;BME280;22291;52.250;21.228;2023-04-25T05:48:33;99057.98;;;12.41;77.07
36254;BME280;22291;52.250;21.228;2023-04-25T05:50:59;99055.62;;;12.39;77.14
36254;BME280;22291;52.250;21.228;2023-04-25T05:53:26;99059.05;;;12.36;77.20
36254;BME280;22291;52.250;21.228;2023-04-25T05:55:52;99053.05;;;12.37;77.25
36254;BME280;22291;52.250;21.228;2023-04-25T05:58:19;99061.62;;;12.39;77.20
36254;BME280;22291;52.250;21.228;2023-04-25T06:00:46;99056.34;;;12.36;77.02
36254;BME280;22291;52.250;21.228;2023-04-25T06:03:13;99055.88;;;12.34;77.04
36254;BME280;22291;52.250;21.228;2023-04-25T06:05:42;99046.85;;;12.36;77.36
36254;BME280;22291;52.250;21.228;2023-04-25T06:08:09;99060.95;;;12.36;77.12
36254;BME280;22291;52.250;21.228;2023-04-25T06:10:36;99055.53;;;12.36;77.14
36254;BME280;22291;52.250;21.228;2023-04-25T06:13:03;99053.98;;;12.35;77.04
36254;BME280;22291;52.250;21.228;2023-04-25T06:15:31;99058.05;;;12.35;76.78
36254;BME280;22291;52.250;21.228;2023-04-25T06:18:00;99056.46;;;12.33;76.72
36254;BME280;22291;52.250;21.228;2023-04-25T06:20:27;99064.16;;;12.31;76.51
36254;BME280;22291;52.250;21.228;2023-04-25T06:22:54;99062.92;;;12.29;76.43
36254;BME280;22291;52.250;21.228;2023-04-25T06:25:21;99066.53;;;12.33;76.68
36254;BME280;22291;52.250;21.228;2023-04-25T06:27:47;99066.38;;;12.36;76.65
36254;BME280;22291;52.250;21.228;2023-04-25T06:30:13;99073.73;;;12.35;76.67
36254;BME280;22291;52.250;21.228;2023-04-25T06:32:40;99068.81;;;12.31;76.03
36254;BME280;22291;52.250;21.228;2023-04-25T06:35:08;99070.51;;;12.29;75.99
36254;BME280;22291;52.250;21.228;2023-04-25T06:37:34;99075.70;;;12.28;75.98
36254;BME280;22291;52.250;21.228;2023-04-25T06:40:00;99076.20;;;12.24;76.54
36254;BME280;22291;52.250;21.228;2023-04-25T06:42:28;99078.36;;;12.19;75.93
36254;BME280;22291;52.250;21.228;2023-04-25T06:44:54;99090.53;;;12.09;76.38
36254;BME280;22291;52.250;21.228;2023-04-25T06:47:21;99106.72;;;11.99;76.07
36254;BME280;22291;52.250;21.228;2023-04-25T06:49:47;99113.30;;;11.86;76.12
36254;BME280;22291;52.250;21.228;2023-04-25T06:52:13;99107.94;;;11.73;76.44
36254;BME280;22291;52.250;21.228;2023-04-25T06:54:40;99092.73;;;11.63;76.44
36254;BME280;22291;52.250;21.228;2023-04-25T06:57:06;99085.66;;;11.58;77.09
36254;BME280;22291;52.250;21.228;2023-04-25T06:59:32;99084.31;;;11.58;77.51
36254;BME280;22291;52.250;21.228;2023-04-25T07:01:59;99084.52;;;11.59;78.03
36254;BME280;22291;52.250;21.228;2023-04-25T07:04:25;99091.04;;;11.64;78.46
36254;BME280;22291;52.250;21.228;2023-04-25T07:06:51;99092.05;;;11.66;78.50
36254;BME280;22291;52.250;21.228;2023-04-25T07:09:18;99097.02;;;11.70;78.96
36254;BME280;22291;52.250;21.228;2023-04-25T07:11:45;99099.77;;;11.80;79.75
36254;BME280;22291;52.250;21.228;2023-04-25T07:14:11;99100.08;;;11.90;80.29
36254;BME280;22291;52.250;21.228;2023-04-25T07:16:37;99100.72;;;12.00;80.18
36254;BME280;22291;52.250;21.228;2023-04-25T07:19:04;99106.06;;;12.12;79.98
36254;BME280;22291;52.250;21.228;2023-04-25T07:21:30;99098.40;;;12.14;79.08
36254;BME280;22291;52.250;21.228;2023-04-25T07:23:57;99101.55;;;12.16;78.50
36254;BME280;22291;52.250;21.228;2023-04-25T07:26:23;99101.40;;;12.19;79.12
36254;BME280;22291;52.250;21.228;2023-04-25T07:28:50;99099.93;;;12.21;78.57
36254;BME280;22291;52.250;21.228;2023-04-25T07:31:17;99098.23;;;12.23;78.40
36254;BME280;22291;52.250;21.228;2023-04-25T07:33:44;99095.38;;;12.25;78.30
36254;BME280;22291;52.250;21.228;2023-04-25T07:36:12;99090.88;;;12.23;77.96
36254;BME280;22291;52.250;21.228;2023-04-25T07:38:40;99102.23;;;12.29;78.46
36254;BME280;22291;52.250;21.228;2023-04-25T07:41:07;99101.34;;;12.31;78.31
36254;BME280;22291;52.250;21.228;2023-04-25T07:43:33;99105.50;;;12.35;77.96
36254;BME280;22291;52.250;21.228;2023-04-25T07:46:00;99099.98;;;12.31;77.61
36254;BME280;22291;52.250;21.228;2023-04-25T07:48:26;99106.63;;;12.33;77.65
36254;BME280;22291;52.250;21.228;2023-04-25T07:50:52;99107.40;;;12.34;77.38
36254;BME280;22291;52.250;21.228;2023-04-25T07:53:18;99110.57;;;12.36;77.38
36254;BME280;22291;52.250;21.228;2023-04-25T07:55:44;99114.06;;;12.37;77.33
36254;BME280;22291;52.250;21.228;2023-04-25T07:58:11;99113.05;;;12.35;77.15
36254;BME280;22291;52.250;21.228;2023-04-25T08:00:37;99117.12;;;12.35;77.02
36254;BME280;22291;52.250;21.228;2023-04-25T08:03:04;99114.84;;;12.37;77.14
36254;BME280;22291;52.250;21.228;2023-04-25T08:05:30;99117.95;;;12.45;77.50
36254;BME280;22291;52.250;21.228;2023-04-25T08:07:56;99116.19;;;12.53;77.30
36254;BME280;22291;52.250;21.228;2023-04-25T08:10:23;99121.23;;;12.61;77.19
36254;BME280;22291;52.250;21.228;2023-04-25T08:12:49;99118.83;;;12.65;76.83
36254;BME280;22291;52.250;21.228;2023-04-25T08:15:16;99121.54;;;12.65;76.20
36254;BME280;22291;52.250;21.228;2023-04-25T08:17:42;99125.96;;;12.64;75.76
36254;BME280;22291;52.250;21.228;2023-04-25T08:20:11;99132.74;;;12.64;75.60
36254;BME280;22291;52.250;21.228;2023-04-25T08:22:38;99132.39;;;12.65;75.60
36254;BME280;22291;52.250;21.228;2023-04-25T08:25:05;99132.56;;;12.73;75.88
36254;BME280;22291;52.250;21.228;2023-04-25T08:27:31;99123.72;;;12.76;75.47
36254;BME280;22291;52.250;21.228;2023-04-25T08:29:57;99127.99;;;12.77;74.61
36254;BME280;22291;52.250;21.228;2023-04-25T08:32:24;99128.14;;;12.74;74.34
36254;BME280;22291;52.250;21.228;2023-04-25T08:34:50;99126.09;;;12.77;74.06
36254;BME280;22291;52.250;21.228;2023-04-25T08:37:19;99129.89;;;12.82;74.54
36254;BME280;22291;52.250;21.228;2023-04-25T08:39:46;99135.13;;;12.91;74.41
36254;BME280;22291;52.250;21.228;2023-04-25T08:42:15;99134.63;;;12.95;73.95
36254;BME280;22291;52.250;21.228;2023-04-25T08:44:41;99136.86;;;12.99;73.79
36254;BME280;22291;52.250;21.228;2023-04-25T08:47:08;99131.87;;;13.01;73.55
36254;BME280;22291;52.250;21.228;2023-04-25T08:49:34;99133.00;;;13.00;73.11
36254;BME280;22291;52.250;21.228;2023-04-25T08:52:03;99140.05;;;12.95;72.75
36254;BME280;22291;52.250;21.228;2023-04-25T08:54:32;99145.32;;;12.88;72.88
36254;BME280;22291;52.250;21.228;2023-04-25T08:57:00;99148.27;;;12.89;73.18
36254;BME280;22291;52.250;21.228;2023-04-25T08:59:30;99148.11;;;12.92;73.23
36254;BME280;22291;52.250;21.228;2023-04-25T09:01:58;99150.98;;;12.89;72.63
36254;BME280;22291;52.250;21.228;2023-04-25T09:04:24;99152.11;;;12.88;72.30
36254;BME280;22291;52.250;21.228;2023-04-25T09:06:51;99163.23;;;12.83;72.17
36254;BME280;22291;52.250;21.228;2023-04-25T09:09:17;99156.28;;;12.76;72.14
36254;BME280;22291;52.250;21.228;2023-04-25T09:11:43;99162.52;;;12.70;71.94
36254;BME280;22291;52.250;21.228;2023-04-25T09:14:20;99163.94;;;12.64;72.13
36254;BME280;22291;52.250;21.228;2023-04-25T09:19:33;99170.00;;;12.51;71.94
36254;BME280;22291;52.250;21.228;2023-04-25T09:22:03;99176.49;;;12.46;71.94
36254;BME280;22291;52.250;21.228;2023-04-25T09:27:11;99180.57;;;12.24;71.36
36254;BME280;22291;52.250;21.228;2023-04-25T09:29:39;99177.55;;;12.13;71.60
36254;BME280;22291;52.250;21.228;2023-04-25T09:32:21;99191.02;;;12.10;71.81
36254;BME280;22291;52.250;21.228;2023-04-25T09:34:53;99194.41;;;12.07;72.13
36254;BME280;22291;52.250;21.228;2023-04-25T09:40:00;99198.08;;;11.99;72.20
36254;BME280;22291;52.250;21.228;2023-04-25T09:42:26;99204.96;;;11.96;72.05
36254;BME280;22291;52.250;21.228;2023-04-25T09:44:55;99199.52;;;11.90;72.14
36254;BME280;22291;52.250;21.228;2023-04-25T09:47:25;99205.28;;;11.88;72.34
36254;BME280;22291;52.250;21.228;2023-04-25T09:49:52;99199.42;;;11.86;72.42
36254;BME280;22291;52.250;21.228;2023-04-25T09:52:21;99207.13;;;11.78;72.03
36254;BME280;22291;52.250;21.228;2023-04-25T09:54:50;99209.53;;;11.67;72.06
36254;BME280;22291;52.250;21.228;2023-04-25T09:57:19;99204.48;;;11.59;72.36
36254;BME280;22291;52.250;21.228;2023-04-25T09:59:50;99201.78;;;11.53;72.53
36254;BME280;22291;52.250;21.228;2023-04-25T10:02:25;99197.28;;;11.51;73.19
36254;BME280;22291;52.250;21.228;2023-04-25T10:04:54;99195.45;;;11.55;73.66
36254;BME280;22291;52.250;21.228;2023-04-25T10:07:29;99187.09;;;11.61;73.80
36254;BME280;22291;52.250;21.228;2023-04-25T10:10:01;99194.20;;;11.65;73.78
36254;BME280;22291;52.250;21.228;2023-04-25T10:12:29;99197.67;;;11.72;73.79
36254;BME280;22291;52.250;21.228;2023-04-25T10:14:58;99209.53;;;11.73;74.33
36254;BME280;22291;52.250;21.228;2023-04-25T10:17:29;99210.16;;;11.83;74.94
36254;BME280;22291;52.250;21.228;2023-04-25T10:19:55;99211.08;;;11.87;74.71
36254;BME280;22291;52.250;21.228;2023-04-25T10:22:37;99212.88;;;11.83;73.76
36254;BME280;22291;52.250;21.228;2023-04-25T10:25:07;99215.48;;;11.79;73.86
36254;BME280;22291;52.250;21.228;2023-04-25T10:27:35;99214.91;;;11.80;74.30
36254;BME280;22291;52.250;21.228;2023-04-25T10:30:06;99216.16;;;11.82;74.46
36254;BME280;22291;52.250;21.228;2023-04-25T10:32:36;99220.22;;;11.82;74.30
36254;BME280;22291;52.250;21.228;2023-04-25T10:35:17;99221.48;;;11.78;74.00
36254;BME280;22291;52.250;21.228;2023-04-25T10:38:05;99222.73;;;11.75;74.01
36254;BME280;22291;52.250;21.228;2023-04-25T10:40:36;99216.50;;;11.74;74.53
36254;BME280;22291;52.250;21.228;2023-04-25T10:48:51;99217.28;;;11.81;74.70
36254;BME280;22291;52.250;21.228;2023-04-25T10:51:23;99218.53;;;11.84;74.79
36254;BME280;22291;52.250;21.228;2023-04-25T10:53:58;99216.13;;;11.88;75.06
36254;BME280;22291;52.250;21.228;2023-04-25T10:59:10;99214.03;;;11.75;74.39
36254;BME280;22291;52.250;21.228;2023-04-25T11:01:40;99214.61;;;11.69;74.27
36254;BME280;22291;52.250;21.228;2023-04-25T11:04:31;99212.38;;;11.65;74.55
36254;BME280;22291;52.250;21.228;2023-04-25T11:10:03;99214.07;;;11.57;74.54
36254;BME280;22291;52.250;21.228;2023-04-25T11:12:32;99219.72;;;11.58;75.26
36254;BME280;22291;52.250;21.228;2023-04-25T11:15:04;99211.80;;;11.59;75.01
36254;BME280;22291;52.250;21.228;2023-04-25T11:17:31;99223.55;;;11.57;75.21
36254;BME280;22291;52.250;21.228;2023-04-25T11:20:00;99220.40;;;11.55;75.16
36254;BME280;22291;52.250;21.228;2023-04-25T11:22:27;99219.14;;;11.52;75.05
36254;BME280;22291;52.250;21.228;2023-04-25T11:24:54;99224.02;;;11.47;74.97
36254;BME280;22291;52.250;21.228;2023-04-25T11:27:21;99225.37;;;11.40;74.90
36254;BME280;22291;52.250;21.228;2023-04-25T11:29:49;99223.00;;;11.39;75.07
36254;BME280;22291;52.250;21.228;2023-04-25T11:32:17;99227.62;;;11.38;75.22
36254;BME280;22291;52.250;21.228;2023-04-25T11:34:45;99222.11;;;11.35;75.02
36254;BME280;22291;52.250;21.228;2023-04-25T11:37:11;99228.64;;;11.34;74.93
36254;BME280;22291;52.250;21.228;2023-04-25T11:39:44;99227.75;;;11.30;74.80
36254;BME280;22291;52.250;21.228;2023-04-25T11:42:12;99224.03;;;11.28;74.97
36254;BME280;22291;52.250;21.228;2023-04-25T11:44:40;99224.81;;;11.29;74.91
36254;BME280;22291;52.250;21.228;2023-04-25T11:49:35;99224.72;;;11.19;74.92
36254;BME280;22291;52.250;21.228;2023-04-25T11:52:02;99224.93;;;11.20;75.15
36254;BME280;22291;52.250;21.228;2023-04-25T11:54:31;99224.59;;;11.21;75.25
36254;BME280;22291;52.250;21.228;2023-04-25T11:56:57;99226.19;;;11.23;75.51
36254;BME280;22291;52.250;21.228;2023-04-25T11:59:24;99225.17;;;11.27;75.52
36254;BME280;22291;52.250;21.228;2023-04-25T12:01:53;99224.81;;;11.29;75.43
36254;BME280;22291;52.250;21.228;2023-04-25T12:04:22;99222.34;;;11.30;75.03
36254;BME280;22291;52.250;21.228;2023-04-25T12:06:52;99226.64;;;11.31;74.49
36254;BME280;22291;52.250;21.228;2023-04-25T12:09:31;99225.38;;;11.28;73.87
36254;BME280;22291;52.250;21.228;2023-04-25T12:11:58;99229.44;;;11.28;73.66
36254;BME280;22291;52.250;21.228;2023-04-25T12:14:32;99229.44;;;11.28;73.42
36254;BME280;22291;52.250;21.228;2023-04-25T12:17:02;99225.05;;;11.30;73.35
36254;BME280;22291;52.250;21.228;2023-04-25T12:19:35;99224.58;;;11.34;73.57
36254;BME280;22291;52.250;21.228;2023-04-25T12:22:19;99224.92;;;11.45;73.83
36254;BME280;22291;52.250;21.228;2023-04-25T12:24:49;99214.44;;;11.49;73.45
36254;BME280;22291;52.250;21.228;2023-04-25T12:27:18;99219.48;;;11.57;73.22
36254;BME280;22291;52.250;21.228;2023-04-25T12:29:56;99211.70;;;11.62;72.83
36254;BME280;22291;52.250;21.228;2023-04-25T12:32:22;99213.73;;;11.65;72.34
36254;BME280;22291;52.250;21.228;2023-04-25T12:34:52;99212.38;;;11.65;72.04
36254;BME280;22291;52.250;21.228;2023-04-25T12:37:19;99212.13;;;11.70;71.94
36254;BME280;22291;52.250;21.228;2023-04-25T12:39:47;99209.42;;;11.70;71.52
36254;BME280;22291;52.250;21.228;2023-04-25T12:42:14;99206.92;;;11.71;71.30
36254;BME280;22291;52.250;21.228;2023-04-25T12:44:41;99213.02;;;11.74;71.20
36254;BME280;22291;52.250;21.228;2023-04-25T12:47:09;99203.77;;;11.75;71.07
36254;BME280;22291;52.250;21.228;2023-04-25T12:49:35;99207.70;;;11.77;70.38
36254;BME280;22291;52.250;21.228;2023-04-25T12:52:01;99202.28;;;11.77;70.25
36254;BME280;22291;52.250;21.228;2023-04-25T12:54:29;99200.83;;;11.74;69.93
36254;BME280;22291;52.250;21.228;2023-04-25T12:56:57;99198.79;;;11.77;70.00
36254;BME280;22291;52.250;21.228;2023-04-25T12:59:25;99198.89;;;11.81;70.26
36254;BME280;22291;52.250;21.228;2023-04-25T13:01:54;99195.94;;;11.86;70.00
36254;BME280;22291;52.250;21.228;2023-04-25T13:04:20;99200.10;;;11.89;69.78
36254;BME280;22291;52.250;21.228;2023-04-25T13:06:48;99193.56;;;11.90;69.38
36254;BME280;22291;52.250;21.228;2023-04-25T13:09:15;99195.70;;;11.85;68.67
36254;BME280;22291;52.250;21.228;2023-04-25T13:11:41;99182.88;;;11.82;68.64
36254;BME280;22291;52.250;21.228;2023-04-25T13:14:08;99188.62;;;11.80;68.59
36254;BME280;22291;52.250;21.228;2023-04-25T13:16:34;99187.92;;;11.83;68.66